Southern Utah University
, Cedar City
Last Weather Update:04/16/2012 11:00:00 AM
Date
ETo
ETc
Rain
Irrigation
Req
Temp
Max
Temp
Min
Temp
Avg
Avg RH
Avg Wind
Avg Solar
inches
inches
incehs
inches
F
F
F
%
%
watts/m2
03/01/2012 0.08" 0.00" 0.02" -0.02" 42.3° 23.5° 35.2° 55.3% 6.4 MPH 147.9w/m2
03/02/2012 0.07" 0.00" 0.05" -0.04" 33.7° 14.8° 24.6° 50.3% 5.7 MPH 227.2w/m2
03/03/2012 0.09" 0.00" 0.00" 0.00" 48.1° 16.8° 32.5° 53.9% 3.7 MPH 223.4w/m2
03/04/2012 0.10" 0.00" 0.00" 0.00" 60.1° 24.5° 40.1° 53.3% 2.2 MPH 226.6w/m2
03/05/2012 0.15" 0.00" 0.00" 0.00" 64.5° 30.8° 48.7° 28.2% 5.1 MPH 220.8w/m2
03/06/2012 0.18" 0.00" 0.00" 0.00" 56.8° 21.9° 48.4° 28.4% 12.9 MPH 191.4w/m2
03/07/2012 0.03" 0.00" 0.01" -0.01" 29.1° 19.3° 24.3° 80.2% 6.2 MPH 103.2w/m2
03/08/2012 0.09" 0.00" 0.02" -0.02" 43.9° 17.3° 30.0° 62.1% 2.7 MPH 234.8w/m2
03/09/2012 0.11" 0.00" 0.00" 0.00" 55.5° 21.9° 36.6° 51.7% 2.5 MPH 242.0w/m2
03/10/2012 0.13" 0.00" 0.00" 0.00" 59.3° 27.1° 42.4° 41.9% 3.7 MPH 241.6w/m2
03/11/2012 0.15" 0.00" 0.00" 0.00" 58.2° 32.2° 46.0° 30.9% 5.9 MPH 248.0w/m2
03/12/2012 0.15" 0.00" 0.00" 0.00" 57.7° 41.4° 49.6° 23.6% 6.7 MPH 190.1w/m2
03/13/2012 0.21" 0.00" 0.00" 0.00" 59.7° 45.3° 52.1° 20.6% 12.5 MPH 229.6w/m2
03/14/2012 0.15" 0.00" 0.00" 0.00" 61.0° 38.1° 50.2° 29.4% 5.1 MPH 221.0w/m2
03/15/2012 0.15" 0.00" 0.00" 0.00" 63.5° 36.0° 49.9° 37.1% 4.5 MPH 216.6w/m2
03/16/2012 0.16" 0.00" 0.00" 0.00" 62.8° 39.1° 51.9° 35.2% 7.4 MPH 201.7w/m2
03/17/2012 0.13" 0.00" 0.36" -0.29" 54.5° 34.0° 48.1° 50.2% 13.0 MPH 120.0w/m2
03/18/2012 0.06" 0.00" 0.22" -0.18" 35.5° 26.3° 30.9° 79.0% 7.5 MPH 204.1w/m2
03/19/2012 0.06" 0.00" 0.06" -0.05" 36.7° 25.0° 29.1° 79.4% 4.7 MPH 185.1w/m2
03/20/2012 0.10" 0.00" 0.00" 0.00" 47.1° 21.9° 33.3° 62.8% 2.2 MPH 265.8w/m2
03/21/2012 0.13" 0.00" 0.00" 0.00" 60.7° 30.2° 44.0° 52.6% 2.5 MPH 262.7w/m2
03/22/2012 0.17" 0.00" 0.00" 0.00" 67.7° 35.1° 51.1° 40.5% 4.2 MPH 266.4w/m2
03/23/2012 0.20" 0.00" 0.00" 0.00" 63.8° 42.5° 55.2° 32.0% 9.2 MPH 259.1w/m2
03/24/2012 0.16" 0.00" 0.00" 0.00" 65.7° 42.0° 54.1° 35.3% 4.8 MPH 226.8w/m2
03/25/2012 0.21" 0.00" 0.00" 0.00" 63.1° 50.1° 56.9° 25.5% 12.7 MPH 210.5w/m2
03/26/2012 0.14" 0.00" 0.04" -0.03" 51.9° 32.0° 42.3° 50.2% 9.7 MPH 274.8w/m2
03/27/2012 0.15" 0.00" 0.00" 0.00" 59.7° 31.6° 46.3° 38.0% 4.8 MPH 223.9w/m2
03/28/2012 0.15" 0.00" 0.00" 0.00" 60.1° 41.2° 51.4° 30.0% 5.2 MPH 174.6w/m2
03/29/2012 0.14" 0.00" 0.00" 0.00" 61.8° 35.7° 49.5° 41.6% 3.6 MPH 222.4w/m2
03/30/2012 0.18" 0.00" 0.00" 0.00" 69.7° 39.5° 54.9° 35.2% 3.5 MPH 270.5w/m2
03/31/2012 0.23" 0.00" 0.00" 0.00" 68.8° 43.7° 57.8° 32.9% 10.6 MPH 280.1w/m2
Totals: 4.20" 0.00" 0.78" -0.62" 69.7° 14.8° 44.1° 44.1% 6.2 MPH 219.8w/m2